aviador You're here:

WMKP Decoded Metar

PENANG in MALAYSIA
Report Time2018-07-19 20:30:00
UTC Time2018-07-19 21:03:00
Flight Rules vfr VFR
Wind200° at 07 kt
W.Decomp.*RWY 22: 6.6 kt HW 2.4 kt LCW
W.Rank200° ranks 14
Current wind is above 200° avg. (6.2)
Visibility8000 m
Phenomena:N/A
Clouds:Few 025 Hf
Scattered 140 Hf
Broken 270 Hf
Expected CloudBase > 1,200 ft AGL from Temp-Dew spread
Ceiling27,000 ft
Temp28°C (ISA +13)
Dew Point25°C (84% RH)
Heat Index32.7°C
QNH1007 hPa
Density Alt2,129 ft
Elevation13 ft
Report Wrong Elevation
Raw Report
METAR WMKP 192030Z 20007KT 8000 FEW025 SCT140 BKN270 28/25 Q1007 NOSIG=

Extra information for WMKP:More info

Metar Taf Metar & Taf Last 4 Metars F.Rules Stats Wind Profile Meteogram Temp Stats Airport Information Weather charts Add Link Nearby VenuesMetar ALERT Operation Metar Decoded Social comments